createdAt,value
2019-04-23T00:04:41.249Z,12.19
2019-04-23T00:09:46.986Z,12.22
2019-04-23T00:14:55.023Z,12.24
2019-04-23T00:19:55.796Z,12.13
2019-04-23T00:25:38.048Z,12.20
2019-04-23T00:30:01.041Z,12.07
2019-04-23T00:35:12.677Z,12.07
2019-04-23T00:40:20.455Z,12.07
2019-04-23T00:45:27.242Z,11.99
2019-04-23T00:50:38.066Z,11.98
2019-04-23T00:55:35.213Z,11.87
2019-04-23T01:06:05.017Z,11.81
2019-04-23T01:10:56.566Z,11.75
2019-04-23T01:16:01.271Z,11.71
2019-04-23T01:20:53.959Z,11.61
2019-04-23T01:26:08.210Z,11.54
2019-04-23T01:31:31.131Z,11.49
2019-04-23T01:36:46.540Z,11.46
2019-04-23T01:41:45.263Z,11.44
2019-04-23T01:46:45.794Z,11.36
2019-04-23T01:52:04.783Z,11.36
2019-04-23T01:56:49.492Z,11.29
2019-04-23T02:02:01.487Z,11.27
2019-04-23T02:07:05.806Z,11.20
2019-04-23T02:12:11.554Z,11.15
2019-04-23T02:17:15.792Z,11.13
2019-04-23T02:22:38.177Z,11.02
2019-04-23T02:27:42.633Z,11.04
2019-04-23T02:33:07.668Z,11.02
2019-04-23T02:48:19.444Z,10.88
2019-04-23T02:53:18.118Z,10.89
2019-04-23T03:29:04.049Z,10.57
2019-04-23T03:34:56.441Z,10.56
2019-04-23T03:38:56.488Z,10.46
2019-04-23T03:44:14.106Z,10.47
2019-04-23T03:49:15.043Z,10.25
2019-04-23T03:59:36.985Z,10.36
2019-04-23T04:04:32.981Z,10.30
2019-04-23T04:09:38.564Z,10.15
2019-04-23T04:14:47.409Z,10.25
2019-04-23T04:20:02.375Z,10.26
2019-04-23T04:30:00.894Z,10.21
2019-04-23T04:35:20.594Z,10.28
2019-04-23T04:40:29.348Z,10.27
2019-04-23T04:50:22.846Z,10.38
2019-04-23T04:55:26.626Z,10.43
2019-04-23T05:00:50.618Z,10.53
2019-04-23T05:15:58.112Z,10.78
2019-04-23T05:20:58.043Z,10.83
2019-04-23T05:25:59.019Z,11.01
2019-04-23T05:36:22.831Z,11.20
2019-04-23T05:41:16.548Z,11.36
2019-04-23T05:51:27.920Z,11.49
2019-04-23T05:56:27.498Z,11.68
2019-04-23T06:06:47.154Z,12.04
2019-04-23T06:16:55.235Z,12.24
2019-04-23T06:22:11.191Z,12.39
2019-04-23T06:27:01.688Z,12.59
2019-04-23T06:32:02.346Z,12.67
2019-04-23T06:37:09.558Z,12.86
2019-04-23T06:42:11.359Z,12.93
2019-04-23T06:47:55.532Z,12.93
2019-04-23T06:52:21.728Z,13.15
2019-04-23T07:17:47.677Z,13.71
2019-04-23T07:23:03.525Z,14.03
2019-04-23T07:28:09.911Z,14.32
2019-04-23T07:33:05.634Z,14.37
2019-04-23T07:38:40.966Z,14.51
2019-04-23T07:43:40.418Z,14.70
2019-04-23T07:48:35.618Z,14.57
2019-04-23T07:53:52.056Z,14.90
2019-04-23T07:58:44.624Z,14.45
2019-04-23T08:03:57.632Z,15.29
2019-04-23T08:09:02.331Z,15.43
2019-04-23T08:14:08.592Z,15.96
2019-04-23T08:19:11.119Z,16.22
2019-04-23T08:24:53.699Z,15.80
2019-04-23T08:29:44.405Z,15.35
2019-04-23T08:35:00.285Z,15.64
2019-04-23T08:39:55.372Z,15.25
2019-04-23T08:50:23.330Z,15.88
2019-04-23T08:55:34.603Z,15.62
2019-04-23T09:00:40.402Z,15.77
2019-04-23T09:05:50.563Z,16.42
2019-04-23T09:10:49.509Z,16.14
2019-04-23T09:20:55.155Z,16.27
2019-04-23T09:25:57.699Z,16.21
2019-04-23T09:36:37.837Z,17.16
2019-04-23T09:41:51.565Z,17.74
2019-04-23T09:46:52.934Z,18.04
2019-04-23T09:52:01.085Z,17.59
2019-04-23T09:56:57.100Z,17.83
2019-04-23T10:01:57.703Z,18.03
2019-04-23T10:07:00.285Z,18.39
2019-04-23T10:11:49.303Z,19.10
2019-04-23T10:16:53.369Z,18.74
2019-04-23T10:21:57.503Z,18.33
2019-04-23T10:27:01.937Z,18.83
2019-04-23T10:32:05.502Z,18.90
2019-04-23T10:37:09.547Z,19.14
2019-04-23T10:42:14.200Z,18.58
2019-04-23T10:48:12.391Z,18.41
2019-04-23T10:53:18.778Z,19.07
2019-04-23T10:58:17.451Z,18.84
2019-04-23T11:03:41.697Z,18.47
2019-04-23T11:08:27.681Z,19.33
2019-04-23T11:13:40.914Z,18.61
2019-04-23T11:18:51.860Z,19.37
2019-04-23T11:23:50.372Z,19.09
2019-04-23T11:28:44.979Z,19.27
2019-04-23T11:44:13.455Z,19.38
2019-04-23T11:54:17.918Z,20.06
2019-04-23T11:59:31.871Z,19.89
2019-04-23T12:04:40.165Z,20.57
2019-04-23T12:15:15.494Z,19.90
2019-04-23T12:20:06.236Z,20.04
2019-04-23T12:25:18.117Z,20.21
2019-04-23T12:35:19.308Z,20.07
2019-04-23T12:40:32.342Z,19.74
2019-04-23T12:55:36.227Z,19.46
2019-04-23T13:00:44.418Z,19.56
2019-04-23T13:05:36.026Z,20.17
2019-04-23T13:15:53.196Z,19.40
2019-04-23T13:21:07.042Z,19.63
2019-04-23T13:26:07.661Z,19.42
2019-04-23T13:31:12.589Z,19.12
2019-04-23T13:41:20.348Z,20.00
2019-04-23T13:46:33.001Z,19.64
2019-04-23T13:51:34.243Z,19.65
2019-04-23T13:57:14.463Z,19.48
2019-04-23T14:01:42.994Z,19.64
2019-04-23T14:06:52.047Z,19.59
2019-04-23T14:11:51.827Z,19.62
2019-04-23T14:17:14.282Z,19.82
2019-04-23T14:22:21.177Z,19.46
2019-04-23T14:27:14.988Z,19.38
2019-04-23T14:32:30.260Z,18.89
2019-04-23T14:37:18.002Z,18.93
2019-04-23T14:42:33.392Z,18.74
2019-04-23T14:47:37.972Z,18.85
2019-04-23T14:52:50.632Z,18.68
2019-04-23T14:57:58.220Z,18.44
2019-04-23T15:02:57.287Z,18.59
2019-04-23T15:07:58.748Z,18.27
2019-04-23T15:13:03.364Z,18.45
2019-04-23T15:18:09.302Z,18.33
2019-04-23T15:23:27.787Z,18.23
2019-04-23T15:28:08.868Z,17.86
2019-04-23T15:33:27.205Z,17.93
2019-04-23T15:43:34.631Z,17.52
2019-04-23T15:48:42.497Z,17.39
2019-04-23T15:53:44.447Z,17.39
2019-04-23T15:59:02.843Z,17.34
2019-04-23T16:03:28.977Z,17.16
2019-04-23T16:09:04.990Z,17.07
2019-04-23T16:14:17.779Z,17.12
2019-04-23T16:19:24.649Z,16.98
2019-04-23T16:24:22.062Z,16.83
2019-04-23T16:29:48.815Z,16.94
2019-04-23T16:35:10.720Z,16.85
2019-04-23T16:39:56.536Z,16.78
2019-04-23T16:45:08.236Z,16.68
2019-04-23T16:50:05.028Z,16.56
2019-04-23T16:55:08.997Z,16.44
2019-04-23T17:05:20.179Z,16.36
2019-04-23T17:10:19.178Z,16.24
2019-04-23T17:15:35.464Z,16.25
2019-04-23T17:25:41.914Z,16.09
2019-04-23T17:36:07.406Z,15.99
2019-04-23T17:41:15.643Z,15.84
2019-04-23T17:46:14.795Z,15.88
2019-04-23T17:51:14.380Z,15.77
2019-04-23T18:01:41.826Z,15.72
2019-04-23T18:11:50.026Z,15.58
2019-04-23T18:16:57.447Z,15.41
2019-04-23T18:21:58.936Z,15.29
2019-04-23T18:27:06.878Z,15.20
2019-04-23T18:32:16.613Z,15.17
2019-04-23T18:37:24.569Z,15.07
2019-04-23T18:42:39.307Z,14.95
2019-04-23T18:52:48.487Z,14.80
2019-04-23T18:57:48.585Z,14.79
2019-04-23T19:03:11.671Z,14.79
2019-04-23T19:08:32.094Z,14.68
2019-04-23T19:18:35.260Z,14.53
2019-04-23T19:23:39.462Z,14.53
2019-04-23T19:28:53.012Z,14.51
2019-04-23T19:34:34.011Z,14.61
2019-04-23T19:39:17.596Z,14.43
2019-04-23T19:44:18.229Z,14.33
2019-04-23T19:49:31.607Z,14.30
2019-04-23T19:54:37.844Z,14.09
2019-04-23T20:04:42.859Z,14.11
2019-04-23T20:09:48.629Z,14.05
2019-04-23T20:14:52.065Z,14.03
2019-04-23T20:30:21.331Z,13.80
2019-04-23T20:35:21.634Z,13.67
2019-04-23T20:40:23.508Z,13.62
2019-04-23T20:45:28.746Z,13.55
2019-04-23T20:50:36.501Z,13.49
2019-04-23T20:55:47.100Z,13.44
2019-04-23T21:05:43.198Z,13.55
2019-04-23T21:10:48.350Z,13.47
2019-04-23T21:15:58.317Z,13.24
2019-04-23T21:21:03.680Z,13.12
2019-04-23T21:26:01.604Z,13.05
2019-04-23T21:31:11.460Z,12.90
2019-04-23T21:46:48.164Z,12.66
2019-04-23T21:51:49.309Z,12.56
2019-04-23T22:01:59.356Z,12.32
2019-04-23T22:06:59.212Z,12.30
2019-04-23T22:12:08.950Z,12.21
2019-04-23T22:17:19.782Z,12.12
2019-04-23T22:22:18.364Z,11.77
2019-04-23T22:27:26.339Z,11.96
2019-04-23T22:32:40.451Z,11.89
2019-04-23T22:37:56.749Z,11.89
2019-04-23T22:43:06.181Z,11.75
2019-04-23T22:48:01.481Z,11.81
2019-04-23T22:52:53.864Z,11.75
2019-04-23T23:08:35.720Z,11.57
2019-04-23T23:13:20.706Z,11.43
2019-04-23T23:18:28.471Z,11.32
2019-04-23T23:28:38.506Z,11.23
2019-04-23T23:38:58.428Z,11.20
2019-04-23T23:44:07.717Z,11.22
2019-04-23T23:48:59.316Z,11.09
2019-04-23T23:54:10.230Z,10.93
2019-04-23T23:59:12.815Z,11.07
